KGDV/GDV METAR and TAF weather

Enter ICAO airport designator
Station Type Date Time Source
KGDV METAR 2019/06/27 04:56 UTC NOAA

KGDV 270456Z AUTO 02006KT 10SM CLR 21/13 A2995 RMK AO2 SLP127 T02110133


Station Type Date Time Source
KGDV Decoded METAR 2019/06/27 04:56 UTC NOAA

Glendive, Dawson Community Airport, MT, United States (KGDV) 47-08N 104-48W
Jun 27, 2019 - 12:56 AM EDT / 2019.06.27 0456 UTC
Wind: from the NNE (020 degrees) at 7 MPH (6 KT):0
Visibility: 10 mile(s):0
Sky conditions: clear
Temperature: 70.0 F (21.1 C)
Dew Point: 55.9 F (13.3 C)
Relative Humidity: 61%
Pressure (altimeter): 29.95 in. Hg (1014 hPa)
ob: KGDV 270456Z AUTO 02006KT 10SM CLR 21/13 A2995 RMK AO2 SLP127 T02110133
cycle: 5

Station Type Date Time Source
KGDV TAF 2019/06/26 18:22 UTC NOAA

TAF KGDV 261720Z 2618/2718 VRB04KT P6SM SCT180
FM270200 09007KT P6SM BKN150
FM270900 VRB05KT P6SM SCT120

Example: see airport list